Metar - Laupheim Airfield

[Source: ADDS]
METAR
ETHL 190220Z AUTO 03004KT 9999 // ////// 07/02 Q1025 /// =
TAF

Notice: Undefined index: sun in /homepages/1/d158740339/htdocs/joomla/modules/mod_wx/tmpl/default.php on line 13

Metar - Augsburg Airfield

[Source: ADDS]
METAR
EDMA 190220Z AUTO 05005KT 9999 // NCD 08/02 Q1025 =
EDMA 181700Z 1818/1903 07011KT CAVOK BECMG 1818/1820 07006KT
TAF
EDMA 181700Z 1818/1903 07011KT CAVOK BECMG 1818/1820 07006KT =
SR / SS: 04:21 / 18:15 UTC (Günzburg 2019-04-19)

Metar - Memmingen Airfield

[Source: ADDS]
METAR
EDJA 181700Z 1818/1903 06010KT CAVOK BECMG 1818/1820 06005KT TAF
EDJA 181700Z 1818/1903 06010KT CAVOK BECMG 1818/1820 06005KT =

Notice: Undefined index: sun in /homepages/1/d158740339/htdocs/joomla/modules/mod_wx/tmpl/default.php on line 13

Metar - Neuburg/Donau Airfield

[Source: ADDS]
METAR
ETSN 190220Z 01003KT 9999 08/02 Q1026 BLU+ =
ETSN 182200Z 1823/1908 06005KT 9999 NSW FEW220 BY ETGL
TAF
ETSN 182200Z 1823/1908 06005KT 9999 NSW FEW220 BY ETGL =

Notice: Undefined index: sun in /homepages/1/d158740339/htdocs/joomla/modules/mod_wx/tmpl/default.php on line 13

Metar - Stuttgart Airfield

[Source: ADDS]
METAR
EDDS 190220Z 05003KT 350V080 CAVOK 08/02 Q1024 =
EDDS 182300Z 1900/1924 VRB03KT CAVOK BECMG 1907/1910 06007KT BECMG 1917/1920 VRB03KT
TAF
EDDS 182300Z 1900/1924 VRB03KT CAVOK BECMG 1907/1910 06007KT BECMG 1917/1920 VRB03KT =

Notice: Undefined index: sun in /homepages/1/d158740339/htdocs/joomla/modules/mod_wx/tmpl/default.php on line 13

Metar - Niederstetten Airfield

[Source: ADDS]
METAR
ETHN 190220Z 09010KT 9999 09/02 Q1025 BLU+ =
TAF

Notice: Undefined index: sun in /homepages/1/d158740339/htdocs/joomla/modules/mod_wx/tmpl/default.php on line 13